Nearby METAR Reports

 

ENCN - Kristiansand/Kje, Norway
Distance from station: N 17km
Oppdatert: 03/07/2020 13:20
Hovedsaklig skyet
Hovedsaklig skyet
 Vind fra SV
Vind: SV 24 km/h
Temperatur: 15°C
Duggpunkt: 8°C
Fuktighet: 63%
Barometer: 1008 hPa
Clouds: Hovedsaklig skyet
Visibility: 10 km
Cloud details: Hovedsaklig skyet 1036 m
2020/07/03 11:20 ENCN 031120Z 22013KT 190V250 9999 BKN034 15/08 Q1008
EKSN - Sindal Airport, Denmark
Distance from station: ØSØ 145km
Oppdatert: 03/07/2020 12:50
Hovedsaklig skyet
Hovedsaklig skyet
 Vind fra VSV
Vind: VSV 26 km/h
Temperatur: 15°C
Duggpunkt: 6°C
Fuktighet: 55%
Barometer: 1010 hPa
Clouds: Hovedsaklig skyet
Visibility: 10 km
Cloud details: Delvis skyet 1067 m
Hovedsaklig skyet 1890 m
2020/07/03 10:50 EKSN 031050Z 24014KT 9999 SCT035 BKN062 15/06 Q1010
 
EKYT - Alborg, Denmark
Distance from station: SØ 153km
Oppdatert: 03/07/2020 13:20
Hovedsaklig skyet
Hovedsaklig skyet
 Vind fra SV
Vind: SV 26 km/h
Temperatur: 15°C
Duggpunkt: 6°C
Fuktighet: 55%
Barometer: 1010 hPa
Clouds: Hovedsaklig skyet
Visibility: 10 km
Cloud details: Delvis skyet 1158 m
Hovedsaklig skyet 1524 m
2020/07/03 11:20 EKYT 031120Z AUTO 23014KT 9999 SCT038/// BKN050/// 15/06 Q1010
ENSN - Skien/Geiterygge, Norway
Distance from station: NØ 153km
Oppdatert: 09/11/2015 09:50
NOT Current
Klart
Klart
 Vind fra SSV
Vind: SSV 19 km/h, Vindkast: 41 km/h
Temperatur: 7°C
Wind Chill: 4°C
Duggpunkt: 3°C
Fuktighet: 76%
Barometer: 1000 hPa
Oversikt: Klart
Visibility: greater than 10 km
2015/11/09 08:50 ENSN 090850Z 20010G22KT 150V240 CAVOK 07/03 Q1000
 
ENZV - Stavanger/Sola(A, Norway
Distance from station: NV 166km
Oppdatert: 03/07/2020 13:20
Rain showers, Hovedsaklig skyet
Rain showers, Hovedsaklig skyet
 Vind fra VSV
Vind: VSV 17 km/h
Temperatur: 11°C
Duggpunkt: 9°C
Fuktighet: 88%
Barometer: 1006 hPa
Oversikt: Rain Showers
Clouds: Hovedsaklig skyet
Visibility: 7 km
Cloud details: Few Clouds 183 m
Delvis skyet 610 m
Hovedsaklig skyet 1067 m
2020/07/03 11:20 ENZV 031120Z 24009KT 7000 SHRA FEW006 SCT020CB BKN035 11/09 Q1006 TEMPO -SHRA
ENNO - Notodden, Norway
Distance from station: NNØ 182km
Oppdatert: 03/07/2020 12:50
Few Clouds
Few Clouds
 Vind fra ØSØ
Vind: ØSØ 9 km/h
Temperatur: 15°C
Duggpunkt: 6°C
Fuktighet: 55%
Barometer: 1005 hPa
Clouds: Few Clouds
Visibility: 10 km
Cloud details: Few Clouds 1676 m
2020/07/03 10:50 ENNO 031050Z 11005KT 070V150 9999 FEW055 15/06 Q1005
 
ENTO - Torp (civ/Nor-Af, Norway
Distance from station: NØ 183km
Oppdatert: 03/07/2020 13:20
Hovedsaklig skyet
Hovedsaklig skyet
 Vind fra SSV
Vind: SSV 30 km/h
Temperatur: 15°C
Duggpunkt: 6°C
Fuktighet: 55%
Barometer: 1006 hPa
Clouds: Hovedsaklig skyet
Visibility: 10 km
Cloud details: Few Clouds 1372 m
Delvis skyet 2256 m
Hovedsaklig skyet 3353 m
2020/07/03 11:20 ENTO 031120Z 21016KT 9999 FEW045 SCT074 BKN110 15/06 Q1006 NOSIG
EKKA - Karup (dan-Afb), Denmark
Distance from station: SSØ 209km
Oppdatert: 03/07/2020 13:20
Hovedsaklig skyet
Hovedsaklig skyet
 Vind fra SV
Vind: SV 19 km/h
Temperatur: 15°C
Duggpunkt: 8°C
Fuktighet: 63%
Barometer: 1011 hPa
Clouds: Hovedsaklig skyet
Visibility: 10 km
Cloud details: Delvis skyet 823 m
Hovedsaklig skyet 3048 m
2020/07/03 11:20 EKKA 031120Z AUTO 23010KT 9999 SCT027/// BKN100/// 15/08 Q1011 NOSIG
 
ENHD - Haugesund/Karmoy, Norway
Distance from station: NV 216km
Oppdatert: 03/07/2020 13:20
Overskyet
Overskyet
 Vind fra Ø
Vind: Ø 19 km/h
Temperatur: 10°C
Wind Chill: 7°C
Duggpunkt: 8°C
Fuktighet: 88%
Barometer: 1005 hPa
Clouds: Overskyet
Visibility: 10 km
Cloud details: Overskyet 1250 m
2020/07/03 11:20 ENHD 031120Z AUTO 10010KT 9999 OVC041/// 10/08 Q1005 RERA
ENRY - Rygge (nor-Afb), Norway
Distance from station: NØ 216km
Oppdatert: 03/07/2020 13:20
Klart
Klart
 Vind fra S
Vind: S 28 km/h
Temperatur: 16°C
Duggpunkt: 6°C
Fuktighet: 52%
Barometer: 1006 hPa
Oversikt: Klart
Visibility: greater than 10 km
2020/07/03 11:20 ENRY 031120Z 19015KT CAVOK 16/06 Q1006 NOSIG
 
ESGP - Goteborg/Save (a, Sweden
Distance from station: Ø 230km
Oppdatert: 02/01/2017 11:20
NOT Current
Klart
Klart
 Vind fra calm
Vind: Stille
Temperatur: -2°C
Duggpunkt: -4°C
Fuktighet: 86%
Barometer: 1012 hPa
Clouds: Klart
Visibility: 10 km
2017/01/02 10:20 ESGP 021020Z AUTO 00000KT 9999 NCD M02/M04 Q1012
EKVJ - Stauning Airport, Denmark
Distance from station: S 233km
Oppdatert: 03/07/2020 12:50
Hovedsaklig skyet
Hovedsaklig skyet
 Vind fra SV
Vind: SV 30 km/h
Temperatur: 16°C
Duggpunkt: 10°C
Fuktighet: 68%
Barometer: 1012 hPa
Clouds: Hovedsaklig skyet
Visibility: 10 km
Cloud details: Delvis skyet 762 m
Hovedsaklig skyet 4267 m
2020/07/03 10:50 EKVJ 031050Z 23016KT 9999 SCT025 BKN140 16/10 Q1012
 
ENSO - Stord/Soerstokke, Norway
Distance from station: NV 246km
Oppdatert: 03/07/2020 13:20
Delvis skyet
Delvis skyet
 Vind fra ØSØ
Vind: ØSØ 17 km/h
Temperatur: 9°C
Wind Chill: 7°C
Duggpunkt: 8°C
Fuktighet: 94%
Barometer: 1005 hPa
Clouds: Delvis skyet
Visibility: 10 km
Cloud details: Few Clouds 396 m
Delvis skyet 914 m
2020/07/03 11:20 ENSO 031120Z 12009KT 9999 FEW013 SCT030 09/08 Q1005
EKAH - Tirstrup (civ/Mi, Denmark
Distance from station: SØ 252km
Oppdatert: 03/07/2020 13:20
Hovedsaklig skyet
Hovedsaklig skyet
 Vind fra SV
Vind: SV 11 km/h
Temperatur: 16°C
Duggpunkt: 9°C
Fuktighet: 63%
Barometer: 1012 hPa
Clouds: Hovedsaklig skyet
Visibility: 10 km
Cloud details: Hovedsaklig skyet 945 m
2020/07/03 11:20 EKAH 031120Z AUTO 23006KT 190V270 9999NDV BKN031/// 16/09 Q1012
 
ESGT - Trollhattan (pvt, Sweden
Distance from station: Ø 255km
Oppdatert: 03/07/2020 13:20
Overskyet
Overskyet
 Vind fra VSV
Vind: VSV 22 km/h
Temperatur: 15°C
Duggpunkt: 7°C
Fuktighet: 59%
Barometer: 1009 hPa
Clouds: Overskyet
Visibility: 10 km
Cloud details: Delvis skyet 1280 m
Overskyet 1737 m
2020/07/03 11:20 ESGT 031120Z 24012KT 9999 SCT042 OVC057 15/07 Q1009
ESGG - Goteborg/Landvet, Sweden
Distance from station: Ø 257km
Oppdatert: 03/07/2020 13:20
Hovedsaklig skyet
Hovedsaklig skyet
 Vind fra SSV
Vind: SSV 22 km/h
Temperatur: 14°C
Duggpunkt: 6°C
Fuktighet: 59%
Barometer: 1010 hPa
Clouds: Hovedsaklig skyet
Visibility: 10 km
Cloud details: Delvis skyet 975 m
Hovedsaklig skyet 1676 m
2020/07/03 11:20 ESGG 031120Z 20012KT 9999 SCT032 BKN055 14/06 Q1010
 
EKBI - Billund Airport, Denmark
Distance from station: SSØ 269km
Oppdatert: 03/07/2020 13:20
Hovedsaklig skyet
Hovedsaklig skyet
 Vind fra VSV
Vind: VSV 24 km/h
Temperatur: 16°C
Duggpunkt: 8°C
Fuktighet: 59%
Barometer: 1012 hPa
Clouds: Hovedsaklig skyet
Visibility: 10 km
Cloud details: Hovedsaklig skyet 945 m
Hovedsaklig skyet 4267 m
2020/07/03 11:20 EKBI 031120Z AUTO 24013KT 210V280 9999 BKN031/// BKN140/// 16/08 Q1012
EKHN - Horns Rev B Heli, Denmark
Distance from station: S 274km
Oppdatert: 09/08/2016 14:20
NOT Current
Few Clouds
Few Clouds
 Vind fra VNV
Vind: VNV 50 km/h, Vindkast: 72 km/h
Temperatur: 14°C
Duggpunkt: 10°C
Fuktighet: 77%
Barometer: 1018 hPa
Clouds: Few Clouds
Visibility: 10 km
Cloud details: Few Clouds 1158 m
Few Clouds 2438 m
2016/08/09 12:20 EKHN 091220Z AUTO 29027G39KT 270V340 9999NDV FEW038/// FEW080/// 14/10 Q1018
 
ESIB - Satenas (swe-Afb, Sweden
Distance from station: Ø 277km
Oppdatert: 03/07/2020 13:20
Hovedsaklig skyet
Hovedsaklig skyet
 Vind fra VSV
Vind: VSV 31 km/h
Temperatur: 16°C
Duggpunkt: 8°C
Fuktighet: 59%
Barometer: 1008 hPa
Clouds: Hovedsaklig skyet
Visibility: 10 km
Cloud details: Few Clouds 1494 m
Delvis skyet 4267 m
Hovedsaklig skyet 6096 m
2020/07/03 11:20 ESIB 031120Z 25017KT 9999 FEW049 SCT140 BKN200 16/08 Q1008
EKHR - Horns Rev B Heli, Denmark
Distance from station: S 282km
Oppdatert: 04/10/2016 06:20
NOT Current
Klart
Klart
 Vind fra Ø
Vind: Ø 4 km/h
Temperatur: 11°C
Duggpunkt: -49°C
Fuktighet: 0%
Barometer: 1038 hPa
Clouds: Klart
Visibility: 10 km
2016/10/04 04:20 EKHR 040420Z AUTO 08002KT 9999NDV NCD 11/M49 Q1038